Depesze METAR lotnisk w Polsce

METAR – format kodowanego raportu o pogodzie używany w meteorologii lotniczej i prognozie pogody. METAR jest akronimem od ang. Meteorological Aerodrome Report. Typowy METAR zawiera informację o temperaturze, ciśnieniu, temperaturze punktu rosy, sile i kierunku wiatru, opadzie, pokrywie chmur, wysokości podstawy chmur, widzialności, lecz może zawierać też inne informacje (np. stan dróg startowych).

Warszawa-Okęcie (EPWA)

METAR = EPWA 070230Z 20007KT 9999 SCT026 M00/M03 Q1007 NOSIG

STACJA......... EPWA - Warszawa-Okęcie (WAW)
POMIAR......... Sat Dec 7, 03:30 CET
WIATR.......... południowo południowo-zachodni  (SSW) z prędkością 13 km/h
WIDZIALNOŚĆ.... powyżej 10 kilometrów
CHMURY......... zachmurzenie małe (3/8-4/8)
TEMPERATURA.... 0°C
T.PUNKTU ROSY.. -3°C
WILGOTNOŚĆ..... 80%
T.ODCZUWALNA... -4°C
CIŚNIENIE...... 1007 hPa
CIŚN.BEZWZGL... 993 hPa
PROGNOZA....... bez nagłych zmian w ciągu 2h

Sprawdź też: Prognoza pogody Warszawa

Warszawa-Modlin (EPMO)

METAR = EPMO 070230Z 20010KT 9999 BKN023 00/M04 Q1006 =

STACJA......... EPMO - Warszawa-Modlin (WMI)
POMIAR......... Sat Dec 7, 03:30 CET
WIATR.......... południowo południowo-zachodni  (SSW) z prędkością 19 km/h
WIDZIALNOŚĆ.... powyżej 10 kilometrów
CHMURY......... zachmurzenie średnie (5/8-7/8)
TEMPERATURA.... 0°C
T.PUNKTU ROSY.. -4°C
WILGOTNOŚĆ..... 75%
T.ODCZUWALNA... -5°C
CIŚNIENIE...... 1006 hPa
CIŚN.BEZWZGL... 993 hPa

Sprawdź też: Prognoza pogody Nowy Dwór Mazowiecki

Kraków-Balice (EPKK)

METAR = EPKK 070230Z 21002KT 7000 NSC M05/M07 Q1011

STACJA......... EPKK - Kraków-Balice (KRK)
POMIAR......... Sat Dec 7, 03:30 CET
WIATR.......... południowo południowo-zachodni  (SSW) z prędkością 4 km/h
WIDZIALNOŚĆ.... 7000 metrów
CHMURY......... brak istotnych chmur
TEMPERATURA.... -5°C
T.PUNKTU ROSY.. -7°C
WILGOTNOŚĆ..... 86%
CIŚNIENIE...... 1011 hPa
CIŚN.BEZWZGL... 981 hPa

Sprawdź też: Prognoza pogody Kraków

Łódź-Lublinek (EPLL)

METAR = EPLL 070230Z 21008KT 170V240 9999 FEW029 OVC034 01/M03 Q1007

STACJA......... EPLL - Łódź-Lublinek (LCJ)
POMIAR......... Sat Dec 7, 03:30 CET
WIATR.......... południowo południowo-zachodni  (SSW) z prędkością 15 km/h
WIDZIALNOŚĆ.... powyżej 10 kilometrów
CHMURY......... zachmurzenie całkowite (8/8)
TEMPERATURA.... 1°C
T.PUNKTU ROSY.. -3°C
WILGOTNOŚĆ..... 75%
T.ODCZUWALNA... -3°C
CIŚNIENIE...... 1007 hPa
CIŚN.BEZWZGL... 984 hPa

Sprawdź też: Prognoza pogody Łódź

Wrocław-Strachowice (EPWR)

METAR = EPWR 070230Z 23013KT 9999 BKN040 05/M03 Q1006

STACJA......... EPWR - Wrocław-Strachowice (WRO)
POMIAR......... Sat Dec 7, 03:30 CET
WIATR.......... południowo-zachodni (SW) z prędkością 24 km/h
WIDZIALNOŚĆ.... powyżej 10 kilometrów
CHMURY......... zachmurzenie średnie (5/8-7/8)
TEMPERATURA.... 5°C
T.PUNKTU ROSY.. -3°C
WILGOTNOŚĆ..... 57%
T.ODCZUWALNA... 1°C
CIŚNIENIE...... 1006 hPa
CIŚN.BEZWZGL... 991 hPa

Sprawdź też: Prognoza pogody Wrocław

Katowice-Pyrzowice (EPKT)

METAR = EPKT 070230Z 21015KT CAVOK M02/M04 Q1010

STACJA......... EPKT - Katowice-Pyrzowice (KTW)
POMIAR......... Sat Dec 7, 03:30 CET
WIATR.......... południowo południowo-zachodni  (SSW) z prędkością 28 km/h
WIDZIALNOŚĆ.... powyżej 10 kilometrów
CHMURY......... bezchmurne niebo
TEMPERATURA.... -2°C
T.PUNKTU ROSY.. -4°C
WILGOTNOŚĆ..... 86%
T.ODCZUWALNA... -9°C
CIŚNIENIE...... 1010 hPa
CIŚN.BEZWZGL... 973 hPa

Sprawdź też: Prognoza pogody Katowice

Gdańsk (EPGD)

METAR = EPGD 070230Z 23011KT 8000 -RA OVC005 03/02 Q0999

STACJA......... EPGD - Gdańsk im. Lecha Wałęsy (GDN)
POMIAR......... Sat Dec 7, 03:30 CET
WIATR.......... południowo-zachodni (SW) z prędkością 20 km/h
WIDZIALNOŚĆ.... 8000 metrów
WARUNKI........ słaby: deszcz 
CHMURY......... zachmurzenie całkowite (8/8)
TEMPERATURA.... 3°C
T.PUNKTU ROSY.. 2°C
WILGOTNOŚĆ..... 93%
T.ODCZUWALNA... -2°C
CIŚNIENIE...... 999 hPa
CIŚN.BEZWZGL... 981 hPa

Sprawdź też: Prognoza pogody Gdańsk

Poznań-Ławica (EPPO)

METAR = EPPO 070230Z 21009KT 9999 -RA BKN018 03/01 Q1003

STACJA......... EPPO - Poznań-Ławica (POZ)
POMIAR......... Sat Dec 7, 03:30 CET
WIATR.......... południowo południowo-zachodni  (SSW) z prędkością 17 km/h
WIDZIALNOŚĆ.... powyżej 10 kilometrów
WARUNKI........ słaby: deszcz 
CHMURY......... zachmurzenie średnie (5/8-7/8)
TEMPERATURA.... 3°C
T.PUNKTU ROSY.. 1°C
WILGOTNOŚĆ..... 87%
T.ODCZUWALNA... -1°C
CIŚNIENIE...... 1003 hPa
CIŚN.BEZWZGL... 991 hPa

Sprawdź też: Prognoza pogody Poznań

Rzeszów-Jasionka (EPRZ)

METAR = EPRZ 070230Z 21014KT CAVOK M02/M06 Q1012

STACJA......... EPRZ - Rzeszów-Jasionka (RZE)
POMIAR......... Sat Dec 7, 03:30 CET
WIATR.......... południowo południowo-zachodni  (SSW) z prędkością 26 km/h
WIDZIALNOŚĆ.... powyżej 10 kilometrów
CHMURY......... bezchmurne niebo
TEMPERATURA.... -2°C
T.PUNKTU ROSY.. -6°C
WILGOTNOŚĆ..... 74%
T.ODCZUWALNA... -9°C
CIŚNIENIE...... 1012 hPa
CIŚN.BEZWZGL... 986 hPa

Sprawdź też: Prognoza pogody Rzeszów

Szczecin-Goleniów (EPSC)

METAR = EPSC 070230Z 21010KT 170V230 9999 SCT003 BKN004 05/04 Q0999

STACJA......... EPSC - Szczecin-Goleniów (SZZ)
POMIAR......... Sat Dec 7, 03:30 CET
WIATR.......... południowo południowo-zachodni  (SSW) z prędkością 19 km/h
WIDZIALNOŚĆ.... powyżej 10 kilometrów
CHMURY......... zachmurzenie średnie (5/8-7/8)
TEMPERATURA.... 5°C
T.PUNKTU ROSY.. 4°C
WILGOTNOŚĆ..... 93%
T.ODCZUWALNA... 1°C
CIŚNIENIE...... 999 hPa
CIŚN.BEZWZGL... 993 hPa

Sprawdź też: Prognoza pogody Szczecin

Lublin-Świdnik (EPLB)

METAR = EPLB 070230Z 23010KT CAVOK M02/M04 Q1010 =

STACJA......... EPLB - Lublin-Świdnik (LUZ)
POMIAR......... Sat Dec 7, 03:30 CET
WIATR.......... południowo-zachodni (SW) z prędkością 19 km/h
WIDZIALNOŚĆ.... powyżej 10 kilometrów
CHMURY......... bezchmurne niebo
TEMPERATURA.... -2°C
T.PUNKTU ROSY.. -4°C
WILGOTNOŚĆ..... 86%
T.ODCZUWALNA... -8°C
CIŚNIENIE...... 1010 hPa
CIŚN.BEZWZGL... 985 hPa

Sprawdź też: Prognoza pogody Lublin

Bydgoszcz-Szwederowo (EPBY)

METAR = EPBY 070230Z 21011KT 9999 OVC017 03/01 Q1002 =

STACJA......... EPBY - Bydgoszcz-Szwederowo (BZG)
POMIAR......... Sat Dec 7, 03:30 CET
WIATR.......... południowo południowo-zachodni  (SSW) z prędkością 20 km/h
WIDZIALNOŚĆ.... powyżej 10 kilometrów
CHMURY......... zachmurzenie całkowite (8/8)
TEMPERATURA.... 3°C
T.PUNKTU ROSY.. 1°C
WILGOTNOŚĆ..... 87%
T.ODCZUWALNA... -2°C
CIŚNIENIE...... 1002 hPa
CIŚN.BEZWZGL... 993 hPa

Sprawdź też: Prognoza pogody Bydgoszcz

Zielona Góra-Babimost (EPZG)

METAR = EPZG 070230Z NIL=

STACJA......... EPZG - Zielona Góra-Babimost (IEG)
POMIAR......... Sat Dec 7, 03:30 CET
DEPESZA........ brak aktualnej prognozy w treści depeszy

Sprawdź też: Prognoza pogody Zielona Góra

Szymany Olsztyn-Mazury (EPSY)

METAR = EPSY 070230Z NIL=

STACJA......... EPSY - Olsztyn-Mazury (SZY)
POMIAR......... Sat Dec 7, 03:30 CET
DEPESZA........ brak aktualnej prognozy w treści depeszy

Sprawdź też: Prognoza pogody Olsztyn